createdAt,value
2018-01-23T00:00:00.352Z,6.25
2018-01-23T00:01:00.464Z,6.26
2018-01-23T00:02:00.373Z,6.33
2018-01-23T00:03:00.485Z,6.34
2018-01-23T00:04:00.777Z,6.31
2018-01-23T00:05:00.242Z,6.28
2018-01-23T00:06:00.573Z,6.29
2018-01-23T00:07:00.783Z,6.33
2018-01-23T00:08:01.118Z,6.32
2018-01-23T00:09:00.409Z,6.3
2018-01-23T00:10:00.076Z,6.32
2018-01-23T00:11:00.171Z,6.34
2018-01-23T00:12:00.436Z,6.38
2018-01-23T00:13:01.002Z,6.4
2018-01-23T00:14:00.760Z,6.4
2018-01-23T00:15:00.456Z,6.38
2018-01-23T00:16:01.296Z,6.41
2018-01-23T00:17:01.017Z,6.41
2018-01-23T00:18:01.598Z,6.42
2018-01-23T00:19:01.415Z,6.42
2018-01-23T00:20:00.734Z,6.45
2018-01-23T00:21:00.278Z,6.44
2018-01-23T00:22:00.245Z,6.47
2018-01-23T00:23:00.903Z,6.48
2018-01-23T00:24:01.909Z,6.51
2018-01-23T00:25:00.143Z,6.52
2018-01-23T00:26:00.196Z,6.52
2018-01-23T00:27:00.275Z,6.54
2018-01-23T00:28:00.493Z,6.54
2018-01-23T00:29:00.643Z,6.58
2018-01-23T00:30:01.290Z,6.58
2018-01-23T00:31:00.849Z,6.57
2018-01-23T00:32:01.031Z,6.6
2018-01-23T00:33:01.416Z,6.6
2018-01-23T00:34:01.084Z,6.6
2018-01-23T00:35:01.568Z,6.6
2018-01-23T00:36:00.635Z,6.6
2018-01-23T00:37:01.897Z,6.61
2018-01-23T00:38:00.523Z,6.61
2018-01-23T00:39:00.417Z,6.6
2018-01-23T00:40:00.397Z,6.58
2018-01-23T00:41:00.798Z,6.59
2018-01-23T00:42:00.530Z,6.57
2018-01-23T00:43:00.709Z,6.56
2018-01-23T00:44:00.361Z,6.58
2018-01-23T00:45:00.296Z,6.58
2018-01-23T00:46:00.257Z,6.52
2018-01-23T00:47:01.010Z,6.54
2018-01-23T00:48:00.691Z,6.53
2018-01-23T00:49:01.087Z,6.56
2018-01-23T00:50:01.168Z,6.55
2018-01-23T00:51:00.242Z,6.55
2018-01-23T00:52:00.479Z,6.54
2018-01-23T00:53:00.924Z,6.53
2018-01-23T00:54:00.431Z,6.53
2018-01-23T00:55:00.413Z,6.53
2018-01-23T00:56:01.898Z,6.53
2018-01-23T00:57:00.660Z,6.54
2018-01-23T00:58:01.629Z,6.54
2018-01-23T00:59:00.190Z,6.53
2018-01-23T01:00:00.688Z,6.51
2018-01-23T01:01:01.386Z,6.52
2018-01-23T01:02:00.668Z,6.54
2018-01-23T01:03:01.022Z,6.51
2018-01-23T01:04:00.366Z,6.52
2018-01-23T01:05:00.542Z,6.5
2018-01-23T01:06:00.844Z,6.5
2018-01-23T01:07:01.055Z,6.5
2018-01-23T01:08:01.360Z,6.5
2018-01-23T01:09:00.958Z,6.48
2018-01-23T01:10:00.372Z,6.49
2018-01-23T01:11:00.307Z,6.5
2018-01-23T01:12:01.439Z,6.49
2018-01-23T01:13:00.454Z,6.49
2018-01-23T01:14:00.710Z,6.48
2018-01-23T01:15:01.459Z,6.48
2018-01-23T01:16:01.488Z,6.49
2018-01-23T01:17:00.265Z,6.49
2018-01-23T01:18:00.511Z,6.47
2018-01-23T01:19:00.589Z,6.47
2018-01-23T01:20:00.754Z,6.49
2018-01-23T01:21:00.356Z,6.47
2018-01-23T01:22:00.494Z,6.5
2018-01-23T01:23:00.339Z,6.47
2018-01-23T01:24:00.277Z,6.48
2018-01-23T01:25:00.218Z,6.47
2018-01-23T01:26:00.286Z,6.47
2018-01-23T01:27:01.090Z,6.49
2018-01-23T01:28:00.479Z,6.47
2018-01-23T01:29:01.159Z,6.46
2018-01-23T01:30:01.172Z,6.47
2018-01-23T01:31:01.633Z,6.47
2018-01-23T01:32:01.698Z,6.48
2018-01-23T01:33:01.350Z,6.47
2018-01-23T01:34:02.361Z,6.5
2018-01-23T01:35:00.320Z,6.5
2018-01-23T01:36:01.118Z,6.51
2018-01-23T01:37:00.419Z,6.52
2018-01-23T01:38:00.453Z,6.5
2018-01-23T01:39:00.398Z,6.51
2018-01-23T01:40:00.445Z,6.51
2018-01-23T01:41:00.632Z,6.49
2018-01-23T01:42:01.943Z,6.52
2018-01-23T01:43:00.461Z,6.51
2018-01-23T01:44:00.413Z,6.51
2018-01-23T01:45:00.770Z,6.5
2018-01-23T01:46:01.185Z,6.5
2018-01-23T01:47:00.616Z,6.49
2018-01-23T01:48:00.650Z,6.49
2018-01-23T01:49:00.864Z,6.49
2018-01-23T01:50:04.413Z,6.47
2018-01-23T01:51:00.333Z,6.5
2018-01-23T01:52:01.631Z,6.51
2018-01-23T01:53:00.443Z,6.47
2018-01-23T01:54:00.568Z,6.48
2018-01-23T01:55:00.430Z,6.52
2018-01-23T01:56:00.411Z,6.5
2018-01-23T01:57:00.947Z,6.5
2018-01-23T01:58:00.607Z,6.5
2018-01-23T01:59:01.057Z,6.5
2018-01-23T02:00:00.578Z,6.51
2018-01-23T02:01:01.773Z,6.51
2018-01-23T02:02:00.536Z,6.5
2018-01-23T02:03:00.608Z,6.48
2018-01-23T02:04:00.900Z,6.48
2018-01-23T02:05:00.200Z,6.52
2018-01-23T02:06:00.388Z,6.5
2018-01-23T02:07:00.400Z,6.48
2018-01-23T02:08:00.309Z,6.5
2018-01-23T02:09:01.353Z,6.5
2018-01-23T02:10:00.555Z,6.48
2018-01-23T02:11:01.075Z,6.51
2018-01-23T02:12:01.851Z,6.49
2018-01-23T02:13:00.408Z,6.5
2018-01-23T02:14:00.240Z,6.5
2018-01-23T02:15:00.426Z,6.47
2018-01-23T02:16:02.448Z,6.5
2018-01-23T02:17:00.395Z,6.5
2018-01-23T02:18:00.595Z,6.5
2018-01-23T02:19:03.354Z,6.5
2018-01-23T02:20:00.583Z,6.5
2018-01-23T02:21:00.758Z,6.51
2018-01-23T02:22:00.240Z,6.5
2018-01-23T02:23:00.181Z,6.51
2018-01-23T02:24:00.223Z,6.52
2018-01-23T02:25:01.162Z,6.51
2018-01-23T02:26:01.238Z,6.52
2018-01-23T02:27:01.571Z,6.5
2018-01-23T02:28:02.737Z,6.5
2018-01-23T02:29:00.501Z,6.49
2018-01-23T02:30:00.557Z,6.51
2018-01-23T02:31:00.655Z,6.51
2018-01-23T02:32:00.675Z,6.5
2018-01-23T02:33:00.236Z,6.47
2018-01-23T02:34:00.754Z,6.49
2018-01-23T02:35:00.558Z,6.46
2018-01-23T02:36:00.536Z,6.47
2018-01-23T02:37:01.115Z,6.49
2018-01-23T02:38:01.419Z,6.48
2018-01-23T02:39:00.769Z,6.48
2018-01-23T02:40:01.530Z,6.5
2018-01-23T02:41:00.536Z,6.5
2018-01-23T02:42:00.557Z,6.5
2018-01-23T02:43:03.209Z,6.5
2018-01-23T02:44:01.062Z,6.5
2018-01-23T02:45:01.309Z,6.51
2018-01-23T02:46:00.399Z,6.51
2018-01-23T02:47:00.402Z,6.52
2018-01-23T02:48:02.971Z,6.51
2018-01-23T02:49:01.269Z,6.52
2018-01-23T02:50:01.054Z,6.53
2018-01-23T02:51:00.652Z,6.51
2018-01-23T02:52:01.552Z,6.51
2018-01-23T02:53:01.949Z,6.51
2018-01-23T02:54:00.428Z,6.49
2018-01-23T02:55:00.605Z,6.49
2018-01-23T02:56:00.479Z,6.49
2018-01-23T02:57:00.607Z,6.49
2018-01-23T02:58:01.122Z,6.52
2018-01-23T02:59:01.674Z,6.5
2018-01-23T03:00:03.163Z,6.48
2018-01-23T03:01:01.562Z,6.47
2018-01-23T03:02:00.473Z,6.5
2018-01-23T03:03:00.456Z,6.49
2018-01-23T03:04:01.852Z,6.49
2018-01-23T03:05:00.526Z,6.48
2018-01-23T03:06:00.565Z,6.51
2018-01-23T03:07:00.452Z,6.48
2018-01-23T03:08:00.614Z,6.48
2018-01-23T03:09:00.393Z,6.49
2018-01-23T03:10:02.243Z,6.51
2018-01-23T03:11:00.522Z,6.52
2018-01-23T03:12:01.054Z,6.5
2018-01-23T03:13:06.438Z,6.51
2018-01-23T03:14:01.848Z,6.48
2018-01-23T03:15:01.392Z,6.47
2018-01-23T03:16:02.311Z,6.49
2018-01-23T03:17:01.822Z,6.46
2018-01-23T03:18:01.316Z,6.49
2018-01-23T03:19:01.373Z,6.47
2018-01-23T03:20:00.701Z,6.48
2018-01-23T03:21:00.513Z,6.48
2018-01-23T03:22:00.319Z,6.47
2018-01-23T03:23:02.734Z,6.46
2018-01-23T03:24:00.656Z,6.48
2018-01-23T03:25:00.431Z,6.47
2018-01-23T03:26:00.837Z,6.46
2018-01-23T03:27:00.462Z,6.44
2018-01-23T03:28:01.538Z,6.45
2018-01-23T03:29:00.459Z,6.46
2018-01-23T03:30:01.039Z,6.42
2018-01-23T03:31:00.747Z,6.44
2018-01-23T03:32:00.540Z,6.43
2018-01-23T03:33:01.109Z,6.45
2018-01-23T03:34:00.296Z,6.46
2018-01-23T03:35:01.381Z,6.46
2018-01-23T03:36:00.591Z,6.4
2018-01-23T03:37:01.769Z,6.43
2018-01-23T03:38:00.707Z,6.41
2018-01-23T03:39:02.254Z,6.41
2018-01-23T03:40:01.633Z,6.43
2018-01-23T03:41:01.639Z,6.44
2018-01-23T03:42:02.262Z,6.43
2018-01-23T03:43:03.146Z,6.41
2018-01-23T03:44:01.647Z,6.42
2018-01-23T03:45:00.777Z,6.42
2018-01-23T03:46:01.200Z,6.4
2018-01-23T03:47:00.941Z,6.41
2018-01-23T03:48:01.293Z,6.42
2018-01-23T03:49:00.525Z,6.39
2018-01-23T03:50:00.625Z,6.4
2018-01-23T03:51:00.544Z,6.42
2018-01-23T03:52:00.727Z,6.38
2018-01-23T03:53:00.837Z,6.38
2018-01-23T03:54:01.446Z,6.38
2018-01-23T03:55:00.956Z,6.38
2018-01-23T03:56:00.551Z,6.37
2018-01-23T03:57:00.625Z,6.38
2018-01-23T03:58:01.577Z,6.37
2018-01-23T03:59:01.290Z,6.39
2018-01-23T04:00:00.686Z,6.37
2018-01-23T04:01:00.804Z,6.36
2018-01-23T04:02:01.240Z,6.38
2018-01-23T04:03:00.255Z,6.39
2018-01-23T04:04:00.379Z,6.38
2018-01-23T04:05:01.900Z,6.38
2018-01-23T04:06:01.125Z,6.38
2018-01-23T04:07:02.023Z,6.35
2018-01-23T04:08:00.672Z,6.35
2018-01-23T04:09:00.749Z,6.35
2018-01-23T04:10:01.263Z,6.36
2018-01-23T04:11:00.528Z,6.36
2018-01-23T04:12:01.525Z,6.34
2018-01-23T04:13:00.656Z,6.36
2018-01-23T04:14:00.572Z,6.35
2018-01-23T04:15:03.095Z,6.36
2018-01-23T04:16:02.825Z,6.33
2018-01-23T04:17:00.740Z,6.34
2018-01-23T04:18:01.657Z,6.37
2018-01-23T04:19:00.796Z,6.34
2018-01-23T04:20:00.694Z,6.34
2018-01-23T04:21:00.630Z,6.35
2018-01-23T04:22:01.487Z,6.32
2018-01-23T04:23:01.263Z,6.29
2018-01-23T04:24:00.722Z,6.33
2018-01-23T04:25:01.059Z,6.31
2018-01-23T04:26:01.387Z,6.3
2018-01-23T04:27:00.658Z,6.29
2018-01-23T04:28:01.772Z,6.32
2018-01-23T04:29:01.996Z,6.3
2018-01-23T04:30:01.928Z,6.3
2018-01-23T04:31:01.206Z,6.29
2018-01-23T04:32:01.315Z,6.27
2018-01-23T04:33:00.699Z,6.29
2018-01-23T04:34:00.664Z,6.27
2018-01-23T04:35:01.271Z,6.3
2018-01-23T04:36:01.310Z,6.27
2018-01-23T04:37:01.208Z,6.27
2018-01-23T04:38:01.926Z,6.3
2018-01-23T04:39:02.359Z,6.27
2018-01-23T04:40:00.503Z,6.26
2018-01-23T04:41:00.672Z,6.27
2018-01-23T04:42:00.536Z,6.27
2018-01-23T04:43:01.632Z,6.3
2018-01-23T04:44:00.878Z,6.27
2018-01-23T04:45:00.726Z,6.25
2018-01-23T04:46:01.293Z,6.26
2018-01-23T04:47:01.298Z,6.26
2018-01-23T04:48:01.540Z,6.28
2018-01-23T04:49:00.615Z,6.26
2018-01-23T04:50:00.675Z,6.27
2018-01-23T04:51:00.991Z,6.27
2018-01-23T04:52:00.490Z,6.29
2018-01-23T04:53:01.700Z,6.25
2018-01-23T04:54:00.813Z,6.24
2018-01-23T04:55:00.851Z,6.25
2018-01-23T04:56:01.440Z,6.23
2018-01-23T04:57:00.784Z,6.23
2018-01-23T04:58:00.812Z,6.22
2018-01-23T04:59:01.330Z,6.23
2018-01-23T05:00:02.724Z,6.23
2018-01-23T05:01:00.734Z,6.24
2018-01-23T05:02:01.306Z,6.24
2018-01-23T05:03:00.653Z,6.19
2018-01-23T05:04:00.630Z,6.18
2018-01-23T05:05:00.963Z,6.22
2018-01-23T05:06:00.682Z,6.2
2018-01-23T05:07:01.351Z,6.23
2018-01-23T05:08:00.645Z,6.22
2018-01-23T05:09:02.540Z,6.22
2018-01-23T05:10:00.677Z,6.19
2018-01-23T05:11:01.085Z,6.21
2018-01-23T05:12:01.641Z,6.2
2018-01-23T05:13:01.386Z,6.19
2018-01-23T05:14:02.536Z,6.21
2018-01-23T05:15:01.009Z,6.18
2018-01-23T05:16:00.908Z,6.19
2018-01-23T05:17:01.767Z,6.17
2018-01-23T05:18:02.077Z,6.13
2018-01-23T05:19:02.150Z,6.15
2018-01-23T05:20:03.213Z,6.14
2018-01-23T05:21:00.627Z,6.15
2018-01-23T05:22:01.309Z,6.16
2018-01-23T05:23:02.322Z,6.11
2018-01-23T05:24:00.642Z,6.13
2018-01-23T05:25:00.695Z,6.13
2018-01-23T05:26:01.341Z,6.13
2018-01-23T05:27:00.707Z,6.17
2018-01-23T05:28:01.440Z,6.16
2018-01-23T05:29:00.990Z,6.15
2018-01-23T05:30:01.544Z,6.18
2018-01-23T05:31:02.757Z,6.15
2018-01-23T05:32:00.576Z,6.19
2018-01-23T05:33:01.118Z,6.19
2018-01-23T05:34:01.734Z,6.15
2018-01-23T05:35:00.710Z,6.18
2018-01-23T05:36:01.678Z,6.19
2018-01-23T05:37:00.889Z,6.2
2018-01-23T05:38:00.719Z,6.22
2018-01-23T05:39:00.768Z,6.22
2018-01-23T05:40:01.748Z,6.2
2018-01-23T05:41:01.727Z,6.21
2018-01-23T05:42:00.648Z,6.16
2018-01-23T05:43:00.972Z,6.19
2018-01-23T05:44:00.972Z,6.2
2018-01-23T05:45:01.025Z,6.21
2018-01-23T05:46:00.658Z,6.21
2018-01-23T05:47:01.600Z,6.21
2018-01-23T05:48:00.676Z,6.22
2018-01-23T05:49:00.649Z,6.21
2018-01-23T05:50:01.354Z,6.2
2018-01-23T05:51:01.488Z,6.22
2018-01-23T05:52:00.627Z,6.23
2018-01-23T05:53:01.681Z,6.23
2018-01-23T05:54:00.683Z,6.21
2018-01-23T05:55:00.734Z,6.22
2018-01-23T05:56:00.785Z,6.22
2018-01-23T05:57:00.981Z,6.25
2018-01-23T05:58:00.823Z,6.23
2018-01-23T05:59:00.683Z,6.26
2018-01-23T06:00:02.294Z,6.25
2018-01-23T06:01:00.906Z,6.27
2018-01-23T06:02:00.750Z,6.27
2018-01-23T06:03:00.773Z,6.27
2018-01-23T06:04:02.087Z,6.29
2018-01-23T06:05:01.012Z,6.3
2018-01-23T06:06:00.616Z,6.3
2018-01-23T06:07:01.185Z,6.28
2018-01-23T06:08:01.152Z,6.31
2018-01-23T06:09:00.730Z,6.31
2018-01-23T06:10:01.715Z,6.31
2018-01-23T06:11:00.782Z,6.31
2018-01-23T06:12:00.941Z,6.32
2018-01-23T06:13:01.640Z,6.3
2018-01-23T06:14:00.916Z,6.33
2018-01-23T06:15:00.922Z,6.35
2018-01-23T06:16:01.787Z,6.34
2018-01-23T06:17:01.033Z,6.34
2018-01-23T06:18:00.820Z,6.35
2018-01-23T06:19:01.023Z,6.38
2018-01-23T06:20:02.276Z,6.37
2018-01-23T06:21:05.524Z,6.38
2018-01-23T06:22:00.973Z,6.36
2018-01-23T06:23:01.387Z,6.38
2018-01-23T06:24:01.007Z,6.39
2018-01-23T06:25:02.128Z,6.38
2018-01-23T06:26:01.796Z,6.39
2018-01-23T06:27:01.848Z,6.37
2018-01-23T06:28:00.923Z,6.4
2018-01-23T06:29:01.380Z,6.39
2018-01-23T06:30:02.033Z,6.39
2018-01-23T06:31:00.881Z,6.38
2018-01-23T06:32:00.941Z,6.37
2018-01-23T06:33:00.984Z,6.39
2018-01-23T06:34:01.032Z,6.39
2018-01-23T06:35:02.244Z,6.37
2018-01-23T06:36:00.872Z,6.37
2018-01-23T06:37:01.517Z,6.37
2018-01-23T06:38:00.800Z,6.37
2018-01-23T06:39:00.883Z,6.38
2018-01-23T06:40:02.227Z,6.37
2018-01-23T06:41:01.523Z,6.38
2018-01-23T06:42:00.774Z,6.39
2018-01-23T06:43:00.947Z,6.37
2018-01-23T06:44:01.518Z,6.39
2018-01-23T06:45:01.577Z,6.36
2018-01-23T06:46:00.994Z,6.37
2018-01-23T06:47:00.726Z,6.38
2018-01-23T06:48:02.551Z,6.37
2018-01-23T06:49:00.824Z,6.36
2018-01-23T06:50:01.901Z,6.38
2018-01-23T06:51:01.820Z,6.37
2018-01-23T06:52:01.008Z,6.39
2018-01-23T06:53:02.398Z,6.37
2018-01-23T06:54:02.413Z,6.37
2018-01-23T06:55:01.467Z,6.36
2018-01-23T06:56:01.729Z,6.38
2018-01-23T06:57:01.403Z,6.36
2018-01-23T06:58:00.896Z,6.38
2018-01-23T06:59:00.990Z,6.39
2018-01-23T07:00:01.378Z,6.38
2018-01-23T07:01:00.682Z,6.36
2018-01-23T07:02:02.014Z,6.37
2018-01-23T07:03:00.713Z,6.38
2018-01-23T07:04:01.796Z,6.38
2018-01-23T07:05:01.840Z,6.37
2018-01-23T07:06:00.872Z,6.4
2018-01-23T07:07:01.027Z,6.41
2018-01-23T07:08:00.874Z,6.39
2018-01-23T07:09:02.647Z,6.39
2018-01-23T07:10:02.281Z,6.38
2018-01-23T07:11:01.124Z,6.39
2018-01-23T07:12:01.283Z,6.37
2018-01-23T07:13:00.867Z,6.36
2018-01-23T07:14:01.191Z,6.38
2018-01-23T07:15:00.886Z,6.39
2018-01-23T07:16:01.353Z,6.39
2018-01-23T07:17:00.759Z,6.41
2018-01-23T07:18:00.921Z,6.4
2018-01-23T07:19:01.437Z,6.4
2018-01-23T07:20:01.504Z,6.39
2018-01-23T07:21:00.899Z,6.39
2018-01-23T07:22:00.815Z,6.41
2018-01-23T07:23:04.648Z,6.4
2018-01-23T07:24:02.263Z,6.4
2018-01-23T07:25:01.053Z,6.38
2018-01-23T07:26:01.999Z,6.41
2018-01-23T07:27:00.863Z,6.42
2018-01-23T07:28:00.766Z,6.4
2018-01-23T07:29:01.592Z,6.43
2018-01-23T07:30:02.633Z,6.42
2018-01-23T07:31:00.943Z,6.45
2018-01-23T07:32:03.150Z,6.41
2018-01-23T07:33:00.750Z,6.42
2018-01-23T07:34:00.706Z,6.45
2018-01-23T07:35:00.939Z,6.44
2018-01-23T07:36:00.907Z,6.43
2018-01-23T07:37:01.355Z,6.45
2018-01-23T07:38:00.248Z,6.43
2018-01-23T07:39:00.264Z,6.45
2018-01-23T07:40:00.363Z,6.43
2018-01-23T07:41:00.289Z,6.43
2018-01-23T07:42:00.483Z,6.43
2018-01-23T07:43:00.256Z,6.44
2018-01-23T07:44:00.299Z,6.46
2018-01-23T07:45:00.220Z,6.47
2018-01-23T07:46:00.185Z,6.46
2018-01-23T07:47:00.445Z,6.48
2018-01-23T07:48:00.300Z,6.46
2018-01-23T07:49:00.242Z,6.47
2018-01-23T07:50:00.322Z,6.47
2018-01-23T07:51:00.336Z,6.48
2018-01-23T07:52:00.287Z,6.47
2018-01-23T07:53:00.351Z,6.47
2018-01-23T07:54:00.285Z,6.45
2018-01-23T07:55:00.349Z,6.46
2018-01-23T07:56:00.298Z,6.46
2018-01-23T07:57:00.288Z,6.47
2018-01-23T07:58:00.373Z,6.46
2018-01-23T07:59:00.276Z,6.49
2018-01-23T08:00:00.249Z,6.48
2018-01-23T08:01:00.365Z,6.49
2018-01-23T08:02:00.343Z,6.47
2018-01-23T08:03:00.611Z,6.47
2018-01-23T08:04:00.244Z,6.51
2018-01-23T08:05:00.260Z,6.5
2018-01-23T08:06:00.339Z,6.5
2018-01-23T08:07:00.368Z,6.49
2018-01-23T08:08:00.605Z,6.5
2018-01-23T08:09:00.418Z,6.5
2018-01-23T08:10:00.362Z,6.52
2018-01-23T08:11:00.886Z,6.52
2018-01-23T08:12:00.439Z,6.53
2018-01-23T08:13:00.590Z,6.53
2018-01-23T08:14:00.404Z,6.56
2018-01-23T08:15:00.418Z,6.53
2018-01-23T08:16:00.291Z,6.53
2018-01-23T08:17:00.474Z,6.52
2018-01-23T08:18:00.482Z,6.54
2018-01-23T08:19:00.270Z,6.52
2018-01-23T08:20:00.412Z,6.54
2018-01-23T08:21:00.399Z,6.56
2018-01-23T08:22:00.343Z,6.54
2018-01-23T08:23:00.453Z,6.54
2018-01-23T08:24:00.404Z,6.52
2018-01-23T08:25:00.604Z,6.52
2018-01-23T08:26:00.499Z,6.55
2018-01-23T08:27:00.377Z,6.53
2018-01-23T08:28:00.409Z,6.55
2018-01-23T08:29:00.577Z,6.52
2018-01-23T08:30:03.608Z,6.55
2018-01-23T08:31:02.363Z,6.55
2018-01-23T08:32:00.950Z,6.55
2018-01-23T08:33:00.624Z,6.55
2018-01-23T08:34:01.050Z,6.57
2018-01-23T08:35:00.632Z,6.54
2018-01-23T08:36:00.295Z,6.57
2018-01-23T08:37:01.008Z,6.55
2018-01-23T08:38:01.729Z,6.54
2018-01-23T08:39:01.932Z,6.54
2018-01-23T08:40:01.440Z,6.56
2018-01-23T08:41:00.553Z,6.57
2018-01-23T08:42:00.485Z,6.56
2018-01-23T08:43:00.318Z,6.55
2018-01-23T08:44:00.660Z,6.58
2018-01-23T08:45:00.490Z,6.58
2018-01-23T08:46:00.440Z,6.58
2018-01-23T08:47:00.494Z,6.59
2018-01-23T08:48:00.617Z,6.58
2018-01-23T08:49:00.405Z,6.58
2018-01-23T08:50:00.508Z,6.6
2018-01-23T08:51:00.558Z,6.58
2018-01-23T08:52:00.477Z,6.59
2018-01-23T08:53:01.003Z,6.62
2018-01-23T08:54:00.623Z,6.6
2018-01-23T08:55:00.337Z,6.59
2018-01-23T08:56:00.532Z,6.62
2018-01-23T08:57:00.493Z,6.61
2018-01-23T08:58:00.446Z,6.61
2018-01-23T08:59:00.495Z,6.61
2018-01-23T09:00:00.483Z,6.61
2018-01-23T09:01:00.500Z,6.6
2018-01-23T09:02:00.609Z,6.6
2018-01-23T09:03:00.448Z,6.62
2018-01-23T09:04:00.497Z,6.61
2018-01-23T09:05:00.463Z,6.62
2018-01-23T09:06:00.523Z,6.62
2018-01-23T09:07:00.428Z,6.65
2018-01-23T09:08:00.551Z,6.62
2018-01-23T09:09:00.520Z,6.64
2018-01-23T09:10:00.475Z,6.64
2018-01-23T09:11:00.603Z,6.66
2018-01-23T09:12:00.441Z,6.64
2018-01-23T09:13:00.516Z,6.63
2018-01-23T09:14:00.544Z,6.62
2018-01-23T09:15:00.602Z,6.64
2018-01-23T09:16:00.413Z,6.66
2018-01-23T09:17:00.545Z,6.67
2018-01-23T09:18:00.525Z,6.68
2018-01-23T09:19:00.919Z,6.67
2018-01-23T09:20:00.633Z,6.69
2018-01-23T09:21:00.437Z,6.66
2018-01-23T09:22:00.477Z,6.67
2018-01-23T09:23:00.474Z,6.69
2018-01-23T09:24:01.331Z,6.73
2018-01-23T09:25:00.550Z,6.73
2018-01-23T09:26:00.496Z,6.76
2018-01-23T09:27:00.513Z,6.74
2018-01-23T09:28:00.496Z,6.76
2018-01-23T09:29:00.475Z,6.79
2018-01-23T09:30:00.538Z,6.75
2018-01-23T09:31:00.603Z,6.76
2018-01-23T09:32:00.559Z,6.76
2018-01-23T09:33:01.120Z,6.77
2018-01-23T09:34:00.523Z,6.77
2018-01-23T09:35:00.454Z,6.79
2018-01-23T09:36:00.540Z,6.77
2018-01-23T09:37:00.544Z,6.78
2018-01-23T09:38:00.605Z,6.77
2018-01-23T09:39:00.589Z,6.77
2018-01-23T09:40:00.614Z,6.77
2018-01-23T09:41:00.698Z,6.77
2018-01-23T09:42:00.541Z,6.77
2018-01-23T09:43:00.576Z,6.8
2018-01-23T09:44:00.582Z,6.79
2018-01-23T09:45:00.664Z,6.86
2018-01-23T09:46:00.607Z,6.86
2018-01-23T09:47:00.484Z,6.86
2018-01-23T09:48:00.527Z,6.85
2018-01-23T09:49:00.962Z,6.85
2018-01-23T09:50:00.545Z,6.84
2018-01-23T09:51:00.661Z,6.8
2018-01-23T09:52:00.916Z,6.81
2018-01-23T09:53:01.174Z,6.82
2018-01-23T09:54:00.430Z,6.81
2018-01-23T09:55:00.473Z,6.81
2018-01-23T09:56:00.604Z,6.82
2018-01-23T09:57:01.063Z,6.81
2018-01-23T09:58:00.576Z,6.82
2018-01-23T09:59:00.582Z,6.79
2018-01-23T10:00:00.652Z,6.8
2018-01-23T10:01:00.493Z,6.8
2018-01-23T10:02:00.625Z,6.81
2018-01-23T10:03:00.797Z,6.83
2018-01-23T10:04:00.602Z,6.81
2018-01-23T10:05:00.609Z,6.79
2018-01-23T10:06:00.628Z,6.8
2018-01-23T10:07:00.611Z,6.8
2018-01-23T10:08:00.711Z,6.79
2018-01-23T10:09:00.868Z,6.79
2018-01-23T10:10:00.577Z,6.76
2018-01-23T10:11:00.545Z,6.8
2018-01-23T10:12:00.683Z,6.8
2018-01-23T10:13:00.643Z,6.82
2018-01-23T10:14:00.676Z,6.8
2018-01-23T10:15:00.653Z,6.8
2018-01-23T10:16:00.711Z,6.78
2018-01-23T10:17:00.622Z,6.81
2018-01-23T10:18:00.682Z,6.82
2018-01-23T10:19:00.603Z,6.81
2018-01-23T10:20:00.648Z,6.83
2018-01-23T10:21:01.064Z,6.81
2018-01-23T10:22:00.637Z,6.81
2018-01-23T10:23:00.676Z,6.82
2018-01-23T10:24:00.667Z,6.83
2018-01-23T10:25:00.665Z,6.83
2018-01-23T10:26:00.667Z,6.82
2018-01-23T10:27:00.709Z,6.83
2018-01-23T10:28:00.684Z,6.84
2018-01-23T10:29:00.645Z,6.85
2018-01-23T10:30:00.601Z,6.86
2018-01-23T10:31:00.777Z,6.84
2018-01-23T10:32:00.596Z,6.85
2018-01-23T10:33:00.593Z,6.87
2018-01-23T10:34:00.658Z,6.87
2018-01-23T10:35:00.734Z,6.81
2018-01-23T10:36:00.462Z,6.83
2018-01-23T10:37:00.619Z,6.83
2018-01-23T10:38:00.866Z,6.84
2018-01-23T10:39:00.610Z,6.85
2018-01-23T10:40:00.632Z,6.84
2018-01-23T10:41:01.089Z,6.82
2018-01-23T10:42:00.649Z,6.82
2018-01-23T10:43:00.718Z,6.82
2018-01-23T10:44:00.780Z,6.81
2018-01-23T10:45:00.764Z,6.82
2018-01-23T10:46:00.712Z,6.83
2018-01-23T10:47:00.675Z,6.83
2018-01-23T10:48:00.737Z,6.82
2018-01-23T10:49:00.916Z,6.83
2018-01-23T10:50:00.731Z,6.82
2018-01-23T10:51:00.657Z,6.82
2018-01-23T10:52:00.681Z,6.84
2018-01-23T10:53:00.651Z,6.85
2018-01-23T10:54:00.748Z,6.83
2018-01-23T10:55:00.692Z,6.83
2018-01-23T10:56:00.755Z,6.84
2018-01-23T10:57:00.555Z,6.85
2018-01-23T10:58:00.616Z,6.83
2018-01-23T10:59:00.746Z,6.83
2018-01-23T11:00:00.754Z,6.84
2018-01-23T11:01:00.744Z,6.85
2018-01-23T11:02:00.755Z,6.79
2018-01-23T11:03:00.707Z,6.82
2018-01-23T11:04:00.740Z,6.83
2018-01-23T11:05:00.654Z,6.78
2018-01-23T11:06:00.804Z,6.8
2018-01-23T11:07:00.827Z,6.81
2018-01-23T11:08:00.879Z,6.79
2018-01-23T11:09:00.902Z,6.83
2018-01-23T11:10:00.893Z,6.82
2018-01-23T11:11:00.809Z,6.82
2018-01-23T11:12:00.818Z,6.84
2018-01-23T11:13:00.876Z,6.86
2018-01-23T11:14:00.861Z,6.84
2018-01-23T11:15:00.872Z,6.82
2018-01-23T11:16:00.863Z,6.83
2018-01-23T11:17:00.817Z,6.83
2018-01-23T11:18:01.042Z,6.86
2018-01-23T11:19:00.943Z,6.9
2018-01-23T11:20:00.880Z,6.88
2018-01-23T11:21:00.828Z,6.86
2018-01-23T11:22:01.027Z,6.9
2018-01-23T11:23:01.554Z,6.89
2018-01-23T11:24:00.951Z,6.88
2018-01-23T11:25:00.811Z,6.88
2018-01-23T11:26:00.800Z,6.85
2018-01-23T11:27:00.701Z,6.88
2018-01-23T11:28:00.850Z,6.88
2018-01-23T11:29:00.975Z,6.9
2018-01-23T11:30:00.856Z,6.91
2018-01-23T11:31:00.798Z,6.91
2018-01-23T11:32:00.972Z,6.92
2018-01-23T11:33:00.805Z,6.94
2018-01-23T11:34:00.916Z,6.9
2018-01-23T11:35:00.905Z,6.92
2018-01-23T11:36:00.807Z,6.93
2018-01-23T11:37:00.813Z,6.88
2018-01-23T11:38:00.797Z,6.88
2018-01-23T11:39:00.931Z,6.84
2018-01-23T11:40:01.161Z,6.85
2018-01-23T11:41:00.894Z,6.86
2018-01-23T11:42:00.858Z,6.82
2018-01-23T11:43:00.880Z,6.86
2018-01-23T11:44:00.830Z,6.88
2018-01-23T11:45:00.940Z,6.88
2018-01-23T11:46:01.030Z,6.9
2018-01-23T11:47:00.880Z,6.86
2018-01-23T11:48:00.876Z,6.9
2018-01-23T11:49:00.864Z,6.86
2018-01-23T11:50:00.975Z,6.89
2018-01-23T11:51:00.920Z,6.83
2018-01-23T11:52:01.007Z,6.83
2018-01-23T11:53:00.960Z,6.86
2018-01-23T11:54:01.173Z,6.87
2018-01-23T11:55:00.962Z,6.86
2018-01-23T11:56:01.198Z,6.86
2018-01-23T11:57:00.900Z,6.85
2018-01-23T11:58:00.867Z,6.84
2018-01-23T11:59:00.836Z,6.86
2018-01-23T12:00:00.938Z,6.83
2018-01-23T12:01:00.939Z,6.86
2018-01-23T12:02:00.973Z,6.86
2018-01-23T12:03:00.987Z,6.88
2018-01-23T12:04:00.816Z,6.87
2018-01-23T12:05:00.928Z,6.89
2018-01-23T12:06:01.086Z,6.88
2018-01-23T12:07:00.898Z,6.89
2018-01-23T12:08:00.895Z,6.83
2018-01-23T12:08:59.974Z,6.85
2018-01-23T12:10:00.008Z,6.86
2018-01-23T12:11:00.111Z,6.87
2018-01-23T12:11:59.976Z,6.87
2018-01-23T12:13:00.280Z,6.85
2018-01-23T12:14:00.120Z,6.86
2018-01-23T12:15:00.032Z,6.86
2018-01-23T12:15:59.940Z,6.86
2018-01-23T12:16:59.918Z,6.84
2018-01-23T12:17:59.987Z,6.86
2018-01-23T12:19:00.044Z,6.86
2018-01-23T12:19:59.865Z,6.81
2018-01-23T12:20:59.884Z,6.81
2018-01-23T12:21:59.894Z,6.83
2018-01-23T12:22:59.974Z,6.84
2018-01-23T12:24:01.019Z,6.8
2018-01-23T12:25:00.011Z,6.78
2018-01-23T12:25:59.935Z,6.72
2018-01-23T12:26:59.913Z,6.76
2018-01-23T12:27:59.945Z,6.77
2018-01-23T12:28:59.963Z,6.77
2018-01-23T12:29:59.933Z,6.78
2018-01-23T12:31:00.008Z,6.76
2018-01-23T12:31:59.875Z,6.78
2018-01-23T12:32:59.983Z,6.79
2018-01-23T12:34:00.219Z,6.81
2018-01-23T12:34:59.955Z,6.82
2018-01-23T12:36:00.043Z,6.84
2018-01-23T12:36:59.945Z,6.85
2018-01-23T12:37:59.896Z,6.85
2018-01-23T12:39:00.355Z,6.83
2018-01-23T12:40:00.193Z,6.78
2018-01-23T12:41:00.366Z,6.8
2018-01-23T12:42:00.356Z,6.81
2018-01-23T12:43:00.398Z,6.82
2018-01-23T12:44:00.334Z,6.72
2018-01-23T12:45:00.251Z,6.72
2018-01-23T12:46:00.314Z,6.74
2018-01-23T12:47:00.289Z,6.63
2018-01-23T12:48:00.269Z,6.72
2018-01-23T12:49:00.328Z,6.7
2018-01-23T12:50:00.161Z,6.7
2018-01-23T12:51:00.467Z,6.71
2018-01-23T12:52:00.473Z,6.7
2018-01-23T12:53:00.360Z,6.7
2018-01-23T12:54:00.324Z,6.69
2018-01-23T12:55:00.264Z,6.67
2018-01-23T12:56:00.385Z,6.68
2018-01-23T12:57:00.293Z,6.68
2018-01-23T12:58:00.506Z,6.72
2018-01-23T12:59:00.650Z,6.64
2018-01-23T13:00:00.237Z,6.65
2018-01-23T13:01:00.321Z,6.66
2018-01-23T13:02:00.165Z,6.7
2018-01-23T13:03:00.351Z,6.71
2018-01-23T13:04:00.484Z,6.72
2018-01-23T13:05:00.264Z,6.75
2018-01-23T13:06:00.399Z,6.73
2018-01-23T13:07:00.315Z,6.75
2018-01-23T13:08:00.418Z,6.77
2018-01-23T13:09:00.549Z,6.65
2018-01-23T13:10:00.490Z,6.69
2018-01-23T13:11:00.487Z,6.71
2018-01-23T13:12:00.269Z,6.67
2018-01-23T13:13:00.387Z,6.71
2018-01-23T13:14:00.286Z,6.74
2018-01-23T13:15:00.412Z,6.73
2018-01-23T13:16:00.319Z,6.71
2018-01-23T13:17:00.222Z,6.68
2018-01-23T13:18:00.363Z,6.73
2018-01-23T13:19:00.328Z,6.76
2018-01-23T13:20:00.436Z,6.75
2018-01-23T13:21:00.272Z,6.74